createdAt,value
2023-03-08T00:01:43.857Z,75.18
2023-03-08T00:04:13.551Z,76.18
2023-03-08T00:06:42.793Z,75.40
2023-03-08T00:09:12.110Z,76.30
2023-03-08T00:11:41.226Z,74.90
2023-03-08T00:14:10.344Z,76.72
2023-03-08T00:16:39.493Z,77.93
2023-03-08T00:19:08.600Z,78.25
2023-03-08T00:21:37.693Z,79.45
2023-03-08T00:24:07.192Z,78.38
2023-03-08T00:26:36.347Z,75.40
2023-03-08T00:29:05.788Z,77.47
2023-03-08T00:31:35.170Z,104.25
2023-03-08T00:34:04.376Z,85.15
2023-03-08T00:36:33.621Z,80.80
2023-03-08T00:39:02.851Z,79.88
2023-03-08T00:41:32.156Z,82.45
2023-03-08T00:44:01.344Z,82.43
2023-03-08T00:46:30.517Z,81.50
2023-03-08T00:49:00.773Z,80.22
2023-03-08T00:51:29.917Z,79.43
2023-03-08T00:53:59.013Z,75.80
2023-03-08T00:56:28.534Z,76.85
2023-03-08T00:58:57.634Z,76.50
2023-03-08T01:01:26.979Z,77.90
2023-03-08T01:03:56.543Z,75.28
2023-03-08T01:06:25.655Z,82.53
2023-03-08T01:08:54.787Z,84.45
2023-03-08T01:11:27.837Z,83.80
2023-03-08T01:13:57.984Z,81.63
2023-03-08T01:16:33.437Z,78.63
2023-03-08T01:19:31.769Z,76.07
2023-03-08T01:22:06.400Z,72.97
2023-03-08T01:24:38.781Z,71.30
2023-03-08T01:27:13.085Z,68.43
2023-03-08T01:29:51.267Z,64.95
2023-03-08T01:32:20.509Z,67.20
2023-03-08T01:34:55.569Z,65.55
2023-03-08T01:37:27.564Z,62.20
2023-03-08T01:40:01.758Z,65.07
2023-03-08T01:42:32.106Z,63.13
2023-03-08T01:45:07.959Z,64.68
2023-03-08T01:47:46.064Z,63.45
2023-03-08T01:50:20.579Z,60.53
2023-03-08T01:52:56.910Z,54.50
2023-03-08T01:55:26.284Z,47.42
2023-03-08T01:57:58.423Z,46.20
2023-03-08T02:00:29.142Z,46.40
2023-03-08T02:03:29.038Z,45.53
2023-03-08T02:05:59.266Z,40.20
2023-03-08T02:08:28.743Z,41.90
2023-03-08T02:11:00.471Z,40.78
2023-03-08T02:13:30.393Z,38.28
2023-03-08T02:16:03.652Z,36.95
2023-03-08T02:18:32.792Z,36.13
2023-03-08T02:21:03.053Z,36.15
2023-03-08T02:23:32.209Z,36.78
2023-03-08T02:26:06.565Z,37.65
2023-03-08T02:28:36.291Z,34.53
2023-03-08T02:31:05.454Z,36.97
2023-03-08T02:33:37.508Z,35.97
2023-03-08T02:36:09.375Z,35.97
2023-03-08T02:38:39.357Z,35.83
2023-03-08T02:41:08.783Z,35.03
2023-03-08T02:43:38.057Z,36.92
2023-03-08T02:46:07.422Z,38.58
2023-03-08T02:48:36.532Z,37.10
2023-03-08T02:51:05.715Z,38.20
2023-03-08T02:53:34.839Z,36.35
2023-03-08T02:56:03.946Z,37.33
2023-03-08T02:58:33.106Z,36.70
2023-03-08T03:01:02.363Z,38.38
2023-03-08T03:03:32.409Z,38.75
2023-03-08T03:06:01.964Z,36.75
2023-03-08T03:08:32.940Z,36.90
2023-03-08T03:11:02.107Z,36.90
2023-03-08T03:13:31.158Z,38.38
2023-03-08T03:16:00.349Z,39.42
2023-03-08T03:18:29.536Z,38.78
2023-03-08T03:21:06.579Z,39.17
2023-03-08T03:23:36.140Z,39.58
2023-03-08T03:26:16.332Z,39.78
2023-03-08T03:28:46.133Z,38.30
2023-03-08T03:31:22.359Z,36.05
2023-03-08T03:33:53.050Z,35.28
2023-03-08T03:36:24.263Z,33.30
2023-03-08T03:38:53.627Z,34.72
2023-03-08T03:41:25.193Z,33.72
2023-03-08T03:43:54.981Z,37.65
2023-03-08T03:46:24.246Z,36.63
2023-03-08T03:48:53.471Z,38.88
2023-03-08T03:51:24.684Z,39.78
2023-03-08T03:53:57.086Z,41.22
2023-03-08T03:56:28.819Z,42.90
2023-03-08T03:58:58.013Z,45.42
2023-03-08T04:01:35.620Z,45.47
2023-03-08T04:04:05.236Z,47.70
2023-03-08T04:06:36.721Z,46.33
2023-03-08T04:09:16.121Z,45.00
2023-03-08T04:11:45.692Z,47.80
2023-03-08T04:14:14.927Z,47.22
2023-03-08T04:16:44.149Z,43.65
2023-03-08T04:19:15.217Z,44.60
2023-03-08T04:21:44.427Z,43.97
2023-03-08T04:24:13.577Z,43.50
2023-03-08T04:26:42.688Z,41.05
2023-03-08T04:29:11.937Z,41.10
2023-03-08T04:31:41.166Z,38.17
2023-03-08T04:34:10.407Z,36.65
2023-03-08T04:36:39.672Z,37.05
2023-03-08T04:39:09.561Z,40.53
2023-03-08T04:41:38.686Z,38.28
2023-03-08T04:44:07.773Z,37.47
2023-03-08T04:46:36.926Z,41.47
2023-03-08T04:49:06.093Z,41.05
2023-03-08T04:51:35.264Z,39.80
2023-03-08T04:54:05.788Z,40.25
2023-03-08T04:56:34.915Z,41.20
2023-03-08T04:59:04.289Z,38.90
2023-03-08T05:01:33.473Z,36.92
2023-03-08T05:04:02.704Z,39.60
2023-03-08T05:06:31.790Z,37.03
2023-03-08T05:09:00.973Z,37.90
2023-03-08T05:11:31.451Z,37.47
2023-03-08T05:14:01.837Z,36.15
2023-03-08T05:16:31.124Z,34.25
2023-03-08T05:19:00.274Z,36.53
2023-03-08T05:21:29.520Z,36.83
2023-03-08T05:24:01.614Z,34.60
2023-03-08T05:26:30.794Z,31.35
2023-03-08T05:29:04.413Z,29.92
2023-03-08T05:31:34.108Z,32.50
2023-03-08T05:34:03.192Z,32.90
2023-03-08T05:36:32.327Z,30.90
2023-03-08T05:39:01.523Z,29.63
2023-03-08T05:41:31.025Z,32.20
2023-03-08T05:44:02.548Z,32.40
2023-03-08T05:46:32.123Z,33.65
2023-03-08T05:49:01.330Z,32.67
2023-03-08T05:51:30.477Z,31.88
2023-03-08T05:53:59.692Z,32.05
2023-03-08T05:56:28.822Z,32.83
2023-03-08T05:58:57.998Z,31.13
2023-03-08T06:01:29.399Z,31.02
2023-03-08T06:04:00.032Z,31.98
2023-03-08T06:06:30.012Z,32.25
2023-03-08T06:08:59.401Z,31.15
2023-03-08T06:11:28.748Z,31.35
2023-03-08T06:13:57.939Z,31.63
2023-03-08T06:16:27.089Z,30.92
2023-03-08T06:18:56.219Z,30.65
2023-03-08T06:21:25.447Z,29.92
2023-03-08T06:23:54.524Z,29.27
2023-03-08T06:26:23.823Z,30.90
2023-03-08T06:28:53.252Z,31.48
2023-03-08T06:31:22.439Z,29.67
2023-03-08T06:33:51.554Z,33.08
2023-03-08T06:36:23.187Z,29.38
2023-03-08T06:38:52.866Z,30.80
2023-03-08T06:41:22.915Z,30.02
2023-03-08T06:43:52.168Z,28.92
2023-03-08T06:46:21.798Z,30.75
2023-03-08T06:48:51.571Z,29.05
2023-03-08T06:51:21.042Z,29.00
2023-03-08T06:53:50.426Z,29.13
2023-03-08T06:56:20.209Z,30.10
2023-03-08T06:58:49.448Z,30.55
2023-03-08T07:01:18.678Z,28.67
2023-03-08T07:03:49.740Z,29.52
2023-03-08T07:06:18.819Z,29.98
2023-03-08T07:08:47.983Z,30.23
2023-03-08T07:11:17.164Z,30.08
2023-03-08T07:13:46.479Z,29.08
2023-03-08T07:16:17.222Z,29.23
2023-03-08T07:18:46.585Z,29.77
2023-03-08T07:21:15.760Z,30.10
2023-03-08T07:23:44.847Z,30.63
2023-03-08T07:26:14.671Z,31.27
2023-03-08T07:28:43.879Z,30.58
2023-03-08T07:31:13.950Z,30.00
2023-03-08T07:33:43.161Z,32.38
2023-03-08T07:36:12.390Z,31.90
2023-03-08T07:38:41.790Z,31.33
2023-03-08T07:41:11.515Z,31.83
2023-03-08T07:43:41.225Z,31.55
2023-03-08T07:46:10.563Z,31.73
2023-03-08T07:48:39.863Z,31.75
2023-03-08T07:51:11.405Z,32.92
2023-03-08T07:53:40.959Z,31.95
2023-03-08T07:56:10.671Z,32.42
2023-03-08T07:58:40.622Z,30.75
2023-03-08T08:01:15.624Z,32.95
2023-03-08T08:03:44.900Z,31.75
2023-03-08T08:06:14.215Z,30.58
2023-03-08T08:08:43.482Z,30.58
2023-03-08T08:11:18.446Z,30.15
2023-03-08T08:13:48.313Z,29.90
2023-03-08T08:16:20.210Z,30.13
2023-03-08T08:18:49.545Z,29.83
2023-03-08T08:21:18.993Z,30.73
2023-03-08T08:23:48.821Z,30.13
2023-03-08T08:26:23.534Z,31.23
2023-03-08T08:28:55.650Z,32.83
2023-03-08T08:31:31.944Z,31.63
2023-03-08T08:34:02.082Z,34.20
2023-03-08T08:36:31.408Z,34.00
2023-03-08T08:39:00.618Z,30.00
2023-03-08T08:41:30.655Z,31.98
2023-03-08T08:44:01.403Z,30.60
2023-03-08T08:46:31.965Z,29.38
2023-03-08T08:49:02.111Z,29.58
2023-03-08T08:51:31.353Z,28.55
2023-03-08T08:54:00.767Z,29.38
2023-03-08T08:56:31.410Z,30.02
2023-03-08T08:59:04.193Z,28.52
2023-03-08T09:01:36.678Z,27.98
2023-03-08T09:04:06.014Z,27.52
2023-03-08T09:06:35.260Z,28.55
2023-03-08T09:09:05.699Z,29.67
2023-03-08T09:11:39.861Z,30.08
2023-03-08T09:14:17.926Z,29.63
2023-03-08T09:16:47.140Z,28.83
2023-03-08T09:19:16.557Z,28.73
2023-03-08T09:21:46.344Z,30.40
2023-03-08T09:24:15.834Z,29.13
2023-03-08T09:26:45.039Z,29.02
2023-03-08T09:29:14.521Z,29.40
2023-03-08T09:31:45.156Z,28.98
2023-03-08T09:34:16.533Z,29.20
2023-03-08T09:36:46.267Z,28.63
2023-03-08T09:39:16.137Z,30.05
2023-03-08T09:41:56.852Z,28.67
2023-03-08T09:45:20.519Z,28.15
2023-03-08T09:47:53.754Z,29.98
2023-03-08T09:50:58.180Z,31.17
2023-03-08T09:53:59.034Z,29.33
2023-03-08T09:56:46.010Z,29.13
2023-03-08T09:59:42.043Z,28.73
2023-03-08T10:03:04.839Z,30.08
2023-03-08T10:06:02.055Z,28.80
2023-03-08T10:09:00.912Z,28.80
2023-03-08T10:11:54.271Z,29.30
2023-03-08T10:14:43.737Z,28.80
2023-03-08T10:17:26.981Z,30.08
2023-03-08T10:20:23.608Z,30.15
2023-03-08T10:23:23.540Z,29.17
2023-03-08T10:25:54.056Z,29.40
2023-03-08T10:28:27.503Z,28.90
2023-03-08T10:31:01.449Z,29.65
2023-03-08T10:33:37.864Z,30.15
2023-03-08T10:36:20.913Z,29.80
2023-03-08T10:39:23.168Z,30.20
2023-03-08T10:41:58.505Z,29.38
2023-03-08T10:45:23.142Z,30.08
2023-03-08T10:48:05.445Z,30.63
2023-03-08T10:50:38.731Z,30.15
2023-03-08T10:53:21.403Z,29.08
2023-03-08T10:55:54.042Z,29.20
2023-03-08T10:58:41.112Z,30.83
2023-03-08T11:01:33.643Z,30.08
2023-03-08T11:04:14.135Z,30.90
2023-03-08T11:06:43.761Z,31.60
2023-03-08T11:09:37.879Z,30.77
2023-03-08T11:12:07.447Z,31.67
2023-03-08T11:14:37.817Z,33.15
2023-03-08T11:17:40.257Z,32.38
2023-03-08T11:20:29.701Z,36.13
2023-03-08T11:23:30.637Z,32.25
2023-03-08T11:26:35.334Z,33.75
2023-03-08T11:29:24.533Z,32.22
2023-03-08T11:32:19.234Z,33.30
2023-03-08T11:35:28.050Z,34.75
2023-03-08T11:38:23.361Z,34.60
2023-03-08T11:41:19.610Z,33.78
2023-03-08T11:44:23.701Z,34.53
2023-03-08T11:47:34.153Z,39.20
2023-03-08T11:50:39.601Z,35.92
2023-03-08T11:53:49.008Z,34.30
2023-03-08T11:57:02.319Z,36.72
2023-03-08T11:59:38.779Z,39.03
2023-03-08T12:02:14.780Z,37.90
2023-03-08T12:05:05.433Z,39.28
2023-03-08T12:08:04.342Z,38.90
2023-03-08T12:10:58.389Z,37.55
2023-03-08T12:13:39.748Z,38.58
2023-03-08T12:16:46.281Z,39.15
2023-03-08T12:19:46.886Z,48.95
2023-03-08T12:22:40.198Z,44.70
2023-03-08T12:25:28.292Z,43.28
2023-03-08T12:31:03.247Z,45.45
2023-03-08T12:33:34.428Z,51.50
2023-03-08T12:36:08.622Z,49.85
2023-03-08T12:38:46.793Z,47.90
2023-03-08T12:41:32.336Z,41.85
2023-03-08T12:44:26.751Z,41.05
2023-03-08T12:47:04.731Z,40.60
2023-03-08T12:49:48.209Z,39.08
2023-03-08T12:52:20.100Z,38.40
2023-03-08T12:55:27.858Z,37.90
2023-03-08T12:57:59.125Z,36.90
2023-03-08T13:00:39.494Z,36.22
2023-03-08T13:03:14.517Z,37.35
2023-03-08T13:05:48.236Z,37.63
2023-03-08T13:08:17.391Z,35.97
2023-03-08T13:11:04.378Z,36.63
2023-03-08T13:14:02.552Z,33.00
2023-03-08T13:16:37.128Z,33.65
2023-03-08T13:19:28.795Z,34.38
2023-03-08T13:22:47.399Z,34.55
2023-03-08T13:25:55.580Z,35.08
2023-03-08T13:28:46.252Z,35.97
2023-03-08T13:31:31.932Z,35.08
2023-03-08T13:34:02.053Z,34.50
2023-03-08T13:36:34.116Z,34.70
2023-03-08T13:39:22.416Z,33.30
2023-03-08T13:41:51.998Z,35.35
2023-03-08T13:44:27.950Z,35.50
2023-03-08T13:47:03.162Z,35.67
2023-03-08T13:49:38.190Z,34.30
2023-03-08T13:52:20.277Z,33.85
2023-03-08T13:54:56.380Z,35.85
2023-03-08T13:57:28.201Z,35.17
2023-03-08T14:00:02.117Z,36.20
2023-03-08T14:02:34.887Z,35.17
2023-03-08T14:05:04.185Z,36.50
2023-03-08T14:07:33.852Z,36.45
2023-03-08T14:10:03.027Z,37.83
2023-03-08T14:12:35.570Z,36.78
2023-03-08T14:15:07.181Z,36.53
2023-03-08T14:17:37.977Z,35.15
2023-03-08T14:20:27.344Z,36.40
2023-03-08T14:22:57.180Z,36.20
2023-03-08T14:25:33.229Z,36.70
2023-03-08T14:28:02.419Z,36.08
2023-03-08T14:30:33.294Z,36.35
2023-03-08T14:33:28.278Z,37.60
2023-03-08T14:36:02.555Z,37.85
2023-03-08T14:38:35.038Z,36.10
2023-03-08T14:41:07.339Z,36.72
2023-03-08T14:43:36.761Z,38.58
2023-03-08T14:46:10.457Z,38.38
2023-03-08T14:48:40.363Z,38.10
2023-03-08T14:51:30.192Z,38.40
2023-03-08T14:54:02.274Z,36.88
2023-03-08T14:56:33.195Z,37.75
2023-03-08T14:59:07.176Z,38.42
2023-03-08T15:01:40.529Z,39.17
2023-03-08T15:04:24.138Z,37.92
2023-03-08T15:06:55.946Z,37.75
2023-03-08T15:09:27.145Z,37.20
2023-03-08T15:12:00.822Z,38.58
2023-03-08T15:14:31.482Z,37.28
2023-03-08T15:17:00.647Z,37.78
2023-03-08T15:19:29.758Z,37.60
2023-03-08T15:21:59.004Z,36.92
2023-03-08T15:24:28.305Z,39.15
2023-03-08T15:26:58.223Z,38.30
2023-03-08T15:29:34.091Z,36.95
2023-03-08T15:32:03.890Z,37.08
2023-03-08T15:34:33.008Z,38.33
2023-03-08T15:37:02.170Z,36.67
2023-03-08T15:39:31.424Z,36.25
2023-03-08T15:42:01.528Z,37.85
2023-03-08T15:44:30.786Z,37.15
2023-03-08T15:47:00.196Z,36.90
2023-03-08T15:49:29.326Z,35.83
2023-03-08T15:51:58.548Z,37.33
2023-03-08T15:54:27.707Z,38.25
2023-03-08T15:56:56.806Z,38.00
2023-03-08T15:59:25.926Z,36.47
2023-03-08T16:01:55.107Z,37.53
2023-03-08T16:04:24.309Z,35.85
2023-03-08T16:06:53.381Z,38.65
2023-03-08T16:09:24.608Z,38.63
2023-03-08T16:11:53.785Z,37.67
2023-03-08T16:14:22.961Z,37.50
2023-03-08T16:16:52.126Z,37.90
2023-03-08T16:19:21.299Z,38.17
2023-03-08T16:21:52.642Z,37.50
2023-03-08T16:24:21.940Z,37.83
2023-03-08T16:26:51.145Z,41.35
2023-03-08T16:29:20.503Z,38.15
2023-03-08T16:31:50.058Z,39.03
2023-03-08T16:34:20.143Z,38.33
2023-03-08T16:36:49.401Z,38.38
2023-03-08T16:39:18.887Z,38.50
2023-03-08T16:41:48.459Z,37.97
2023-03-08T16:44:30.414Z,37.88
2023-03-08T16:46:59.603Z,42.42
2023-03-08T16:49:29.356Z,38.65
2023-03-08T16:51:58.986Z,39.45
2023-03-08T16:54:28.174Z,39.78
2023-03-08T16:56:58.694Z,38.63
2023-03-08T16:59:28.963Z,39.13
2023-03-08T17:01:58.058Z,41.42
2023-03-08T17:04:27.137Z,40.05
2023-03-08T17:06:56.990Z,39.67
2023-03-08T17:09:26.146Z,39.45
2023-03-08T17:11:55.309Z,40.03
2023-03-08T17:14:24.416Z,42.38
2023-03-08T17:16:53.726Z,43.30
2023-03-08T17:19:22.818Z,43.22
2023-03-08T17:21:53.721Z,45.85
2023-03-08T17:24:23.178Z,44.92
2023-03-08T17:26:54.041Z,48.45
2023-03-08T17:29:24.169Z,47.58
2023-03-08T17:31:54.063Z,47.85
2023-03-08T17:34:24.691Z,50.75
2023-03-08T17:36:54.461Z,47.33
2023-03-08T17:39:23.962Z,49.70
2023-03-08T17:41:53.449Z,51.25
2023-03-08T17:44:22.681Z,50.90
2023-03-08T17:46:51.864Z,50.92
2023-03-08T17:49:25.779Z,50.22
2023-03-08T17:51:55.842Z,52.40
2023-03-08T17:54:25.153Z,51.53
2023-03-08T17:56:54.340Z,53.95
2023-03-08T17:59:23.790Z,51.95
2023-03-08T18:01:53.015Z,52.35
2023-03-08T18:04:23.072Z,51.08
2023-03-08T18:06:52.334Z,49.85
2023-03-08T18:09:22.175Z,52.20
2023-03-08T18:11:51.392Z,52.97
2023-03-08T18:14:24.363Z,51.55
2023-03-08T18:16:57.691Z,52.17
2023-03-08T18:19:26.884Z,52.22
2023-03-08T18:21:58.303Z,50.88
2023-03-08T18:24:29.145Z,50.55
2023-03-08T18:26:59.123Z,50.50
2023-03-08T18:29:28.402Z,50.55
2023-03-08T18:31:57.578Z,49.45
2023-03-08T18:34:26.862Z,50.03
2023-03-08T18:37:00.790Z,48.97
2023-03-08T18:39:30.172Z,48.10
2023-03-08T18:42:01.611Z,46.70
2023-03-08T18:44:30.908Z,48.28
2023-03-08T18:47:00.556Z,47.85
2023-03-08T18:49:29.757Z,47.78
2023-03-08T18:51:59.728Z,49.30
2023-03-08T18:54:28.866Z,48.65
2023-03-08T18:56:59.197Z,49.13
2023-03-08T18:59:30.009Z,47.63
2023-03-08T19:01:59.125Z,48.65
2023-03-08T19:04:28.581Z,46.38
2023-03-08T19:06:57.715Z,45.55
2023-03-08T19:09:26.848Z,45.70
2023-03-08T19:11:55.896Z,47.70
2023-03-08T19:14:25.199Z,44.72
2023-03-08T19:16:54.301Z,45.42
2023-03-08T19:19:23.541Z,45.65
2023-03-08T19:21:52.728Z,44.25
2023-03-08T19:24:23.287Z,48.45
2023-03-08T19:26:54.191Z,49.08
2023-03-08T19:29:30.298Z,50.10
2023-03-08T19:32:09.058Z,50.85
2023-03-08T19:34:42.406Z,51.15
2023-03-08T19:37:14.336Z,50.08
2023-03-08T19:39:44.627Z,52.30
2023-03-08T19:42:17.331Z,52.33
2023-03-08T19:44:49.370Z,51.63
2023-03-08T19:47:19.401Z,51.50
2023-03-08T19:49:48.551Z,51.20
2023-03-08T19:52:17.753Z,49.70
2023-03-08T19:54:47.213Z,48.75
2023-03-08T19:57:16.409Z,47.97
2023-03-08T19:59:45.524Z,49.70
2023-03-08T20:02:15.368Z,51.10
2023-03-08T20:04:44.481Z,51.03
2023-03-08T20:07:13.640Z,51.30
2023-03-08T20:09:43.746Z,52.80
2023-03-08T20:12:12.862Z,52.35
2023-03-08T20:14:42.000Z,50.05
2023-03-08T20:17:11.104Z,53.33
2023-03-08T20:19:40.159Z,54.45
2023-03-08T20:22:09.285Z,53.45
2023-03-08T20:24:38.443Z,54.55
2023-03-08T20:27:07.550Z,52.63
2023-03-08T20:29:36.686Z,53.78
2023-03-08T20:32:06.036Z,54.03
2023-03-08T20:34:35.232Z,54.35
2023-03-08T20:37:04.389Z,54.35
2023-03-08T20:39:34.014Z,55.20
2023-03-08T20:42:03.193Z,55.95
2023-03-08T20:44:32.394Z,54.00
2023-03-08T20:47:02.374Z,56.45
2023-03-08T20:49:31.590Z,57.25
2023-03-08T20:52:00.799Z,56.25
2023-03-08T20:54:30.283Z,56.45
2023-03-08T20:57:02.602Z,56.55
2023-03-08T20:59:31.871Z,57.60
2023-03-08T21:02:01.122Z,56.40
2023-03-08T21:04:31.384Z,57.50
2023-03-08T21:07:01.152Z,58.50
2023-03-08T21:09:30.339Z,59.17
2023-03-08T21:11:59.567Z,59.33
2023-03-08T21:14:30.041Z,58.92
2023-03-08T21:16:59.180Z,55.75
2023-03-08T21:19:28.452Z,55.78
2023-03-08T21:21:57.635Z,58.33
2023-03-08T21:24:27.143Z,56.30
2023-03-08T21:26:56.373Z,56.25
2023-03-08T21:29:26.152Z,56.58
2023-03-08T21:31:56.491Z,57.75
2023-03-08T21:34:25.777Z,58.05
2023-03-08T21:36:55.102Z,59.53
2023-03-08T21:39:24.456Z,58.00
2023-03-08T21:41:56.437Z,57.17
2023-03-08T21:44:26.377Z,55.30
2023-03-08T21:46:56.474Z,58.28
2023-03-08T21:49:29.810Z,58.50
2023-03-08T21:52:00.429Z,56.13
2023-03-08T21:54:32.372Z,55.92
2023-03-08T21:57:01.866Z,56.55
2023-03-08T21:59:31.490Z,55.53
2023-03-08T22:02:00.764Z,57.83
2023-03-08T22:04:30.441Z,55.38
2023-03-08T22:06:59.709Z,55.47
2023-03-08T22:09:30.123Z,55.90
2023-03-08T22:12:00.254Z,54.08
2023-03-08T22:14:31.214Z,56.70
2023-03-08T22:17:02.298Z,57.17
2023-03-08T22:19:31.480Z,54.45
2023-03-08T22:22:01.711Z,56.65
2023-03-08T22:24:33.747Z,59.20
2023-03-08T22:27:05.481Z,56.17
2023-03-08T22:29:35.635Z,57.35
2023-03-08T22:32:06.487Z,58.10
2023-03-08T22:34:36.871Z,56.00
2023-03-08T22:37:07.148Z,56.80
2023-03-08T22:39:38.200Z,56.20
2023-03-08T22:42:07.905Z,55.60
2023-03-08T22:44:37.202Z,55.28
2023-03-08T22:47:06.880Z,57.80
2023-03-08T22:49:36.048Z,55.00
2023-03-08T22:52:06.100Z,56.47
2023-03-08T22:54:35.615Z,55.13
2023-03-08T22:57:05.996Z,53.20
2023-03-08T22:59:35.549Z,53.78
2023-03-08T23:02:05.496Z,53.45
2023-03-08T23:04:34.718Z,50.67
2023-03-08T23:07:03.957Z,51.70
2023-03-08T23:09:33.452Z,49.97
2023-03-08T23:12:05.608Z,50.35
2023-03-08T23:14:36.552Z,49.17
2023-03-08T23:17:05.772Z,45.35
2023-03-08T23:19:34.905Z,48.17
2023-03-08T23:22:04.704Z,45.35
2023-03-08T23:24:33.859Z,45.80
2023-03-08T23:27:04.657Z,46.85
2023-03-08T23:29:33.848Z,45.47
2023-03-08T23:32:03.268Z,44.00
2023-03-08T23:37:17.964Z,44.60
2023-03-08T23:39:47.170Z,44.42
2023-03-08T23:42:16.413Z,44.03
2023-03-08T23:44:45.684Z,41.63
2023-03-08T23:47:14.895Z,40.50
2023-03-08T23:49:44.095Z,39.50
2023-03-08T23:52:13.298Z,40.13
2023-03-08T23:54:42.640Z,37.65
2023-03-08T23:57:11.886Z,37.85
2023-03-08T23:59:41.246Z,42.05
